Time;durP1;ratioP1;P1;durP2;ratioP2;P2;SDS_P1;SDS_P2;PMS_P1;PMS_P2;Temp;Humidity;BMP_temperature;BMP_pressure;BME280_temperature;BME280_humidity;BME280_pressure;Samples;Min_cycle;Max_cycle;Signal;HPM_P1;HPM_P2
2022/05/14 00:01:21;;;;;;;6.25;3.75;;;563.20;2432.00;;;;;;5032246;28;20442;-59
2022/05/14 00:03:47;;;;;;;4.57;3.05;;;563.20;2432.00;;;;;;5032078;28;20025;-56
2022/05/14 00:06:17;;;;;;;4.88;3.15;;;563.20;2432.00;;;;;;5032290;28;20041;-56
2022/05/14 00:08:43;;;;;;;6.07;3.25;;;563.20;2432.00;;;;;;5032405;28;20034;-56
2022/05/14 00:13:54;;;;;;;5.90;3.55;;;563.20;2432.00;;;;;;5031928;28;20079;-59
2022/05/14 00:16:21;;;;;;;4.07;3.15;;;563.20;2432.00;;;;;;5031942;28;20657;-57
2022/05/14 00:18:47;;;;;;;5.32;3.58;;;563.30;2432.00;;;;;;5031771;28;20099;-57
2022/05/14 00:21:14;;;;;;;8.15;4.25;;;563.20;2432.00;;;;;;5032036;28;20025;-58
2022/05/14 00:23:40;;;;;;;5.00;3.22;;;538.30;2406.40;;;;;;5032025;28;20021;-57
2022/05/14 00:26:06;;;;;;;6.60;3.63;;;538.30;2406.40;;;;;;5031768;28;20188;-56
2022/05/14 00:28:33;;;;;;;8.85;3.80;;;538.30;2406.40;;;;;;5031689;28;20022;-57
2022/05/14 00:30:59;;;;;;;5.88;3.85;;;538.40;2406.40;;;;;;5031811;28;20032;-57
2022/05/14 00:33:24;;;;;;;9.20;3.55;;;538.50;2406.40;;;;;;5031443;28;20112;-57
2022/05/14 00:35:50;;;;;;;4.60;3.17;;;538.50;2406.40;;;;;;5031780;28;20096;-56
2022/05/14 00:38:16;;;;;;;5.50;2.63;;;538.20;2406.40;;;;;;5031338;28;20476;-57
2022/05/14 00:40:46;;;;;;;7.80;4.10;;;538.30;2406.40;;;;;;5031640;28;20033;-57
2022/05/14 00:43:12;;;;;;;7.00;4.10;;;538.20;2406.40;;;;;;5031583;28;20018;-57
2022/05/14 00:45:45;;;;;;;6.20;3.15;;;538.10;2406.40;;;;;;5031266;28;20057;-57
2022/05/14 00:48:12;;;;;;;8.05;3.55;;;538.20;2406.40;;;;;;5031735;28;20022;-57
2022/05/14 00:50:44;;;;;;;5.55;3.25;;;538.20;2406.40;;;;;;5031175;28;20030;-56
2022/05/14 00:53:12;;;;;;;5.65;3.33;;;538.20;2406.40;;;;;;5031436;28;20380;-57
2022/05/14 00:55:40;;;;;;;5.85;3.92;;;538.20;2406.40;;;;;;5030936;28;20357;-57
2022/05/14 00:58:08;;;;;;;5.10;3.08;;;538.30;2406.40;;;;;;5031081;28;20022;-56
2022/05/14 01:00:34;;;;;;;5.97;3.80;;;538.20;2406.40;;;;;;5031213;28;20025;-58
2022/05/14 01:03:00;;;;;;;6.05;4.00;;;538.00;2406.40;;;;;;5031438;28;20021;-57
2022/05/14 01:05:26;;;;;;;5.13;3.67;;;538.00;2406.40;;;;;;5031039;28;20040;-56
2022/05/14 01:07:54;;;;;;;5.07;3.35;;;538.00;2406.40;;;;;;5030893;28;20022;-56
2022/05/14 01:10:25;;;;;;;5.22;3.25;;;538.00;2406.40;;;;;;5030966;28;20488;-56
2022/05/14 01:12:57;;;;;;;4.72;3.30;;;538.00;2406.40;;;;;;5031022;28;20033;-56
2022/05/14 01:15:24;;;;;;;6.60;3.15;;;538.20;2406.40;;;;;;5031199;28;20025;-57
2022/05/14 01:17:51;;;;;;;5.30;3.65;;;538.20;2406.40;;;;;;5031034;28;20029;-56
2022/05/14 01:20:18;;;;;;;5.50;3.78;;;538.20;2406.40;;;;;;5030767;28;20112;-59
2022/05/14 01:23:20;;;;;;;5.95;3.85;;;538.10;2406.40;;;;;;5030803;28;20029;-57
2022/05/14 01:28:30;;;;;;;5.80;3.60;;;537.90;2406.40;;;;;;5030681;28;20088;-57
2022/05/14 01:30:58;;;;;;;4.07;3.20;;;537.80;2406.40;;;;;;5030658;28;20456;-58
2022/05/14 01:33:24;;;;;;;6.47;3.83;;;537.80;2406.40;;;;;;5030490;28;20033;-58
2022/05/14 01:35:50;;;;;;;5.63;4.07;;;537.60;2406.40;;;;;;5030483;28;20071;-58
2022/05/14 01:38:20;;;;;;;4.68;3.15;;;537.60;2406.40;;;;;;5030246;28;20156;-57
2022/05/14 01:40:46;;;;;;;6.00;3.80;;;512.90;2380.80;;;;;;5030336;28;20021;-59
2022/05/14 01:43:12;;;;;;;4.78;3.15;;;512.90;2380.80;;;;;;5030499;28;20091;-56
2022/05/14 01:45:38;;;;;;;4.55;2.92;;;512.90;2380.80;;;;;;5030048;28;20029;-57
2022/05/14 01:48:04;;;;;;;5.57;3.67;;;512.90;2380.80;;;;;;5030166;28;20021;-57
2022/05/14 01:50:30;;;;;;;6.80;3.70;;;512.90;2380.80;;;;;;5030402;28;20035;-56
2022/05/14 01:52:56;;;;;;;3.65;3.08;;;512.90;2380.80;;;;;;5030274;28;20537;-57
2022/05/14 01:55:22;;;;;;;5.00;2.83;;;512.90;2380.80;;;;;;5030576;28;20033;-57
2022/05/14 01:57:48;;;;;;;6.63;3.75;;;537.60;2406.40;;;;;;5030110;28;20471;-56
2022/05/14 02:00:16;;;;;;;5.55;3.25;;;537.60;2406.40;;;;;;5030014;28;20112;-56
2022/05/14 02:02:42;;;;;;;4.75;3.25;;;537.60;2406.40;;;;;;5030240;28;20022;-56
2022/05/14 02:05:08;;;;;;;4.53;3.20;;;537.60;2406.40;;;;;;5029575;28;20124;-57
2022/05/14 02:07:34;;;;;;;4.65;3.10;;;537.60;2406.40;;;;;;5029395;28;20091;-57
2022/05/14 02:10:00;;;;;;;6.40;3.10;;;512.90;2380.80;;;;;;5030160;28;20033;-57
2022/05/14 02:12:25;;;;;;;4.47;2.97;;;512.80;2380.80;;;;;;5030176;28;20028;-58
2022/05/14 02:14:51;;;;;;;5.07;3.40;;;512.80;2380.80;;;;;;5030088;28;20025;-57
2022/05/14 02:17:17;;;;;;;5.20;3.78;;;512.70;2380.80;;;;;;5029982;28;20057;-57
2022/05/14 02:19:43;;;;;;;6.00;3.92;;;512.60;2380.80;;;;;;5029293;28;20033;-56
2022/05/14 02:22:09;;;;;;;4.53;2.85;;;512.50;2380.80;;;;;;5029892;28;20022;-57
2022/05/14 02:24:36;;;;;;;6.45;4.22;;;512.50;2380.80;;;;;;5029780;28;20090;-57
2022/05/14 02:27:03;;;;;;;4.70;3.10;;;512.60;2380.80;;;;;;5030152;28;20121;-56
2022/05/14 02:29:50;;;;;;;5.32;3.58;;;512.80;2380.80;;;;;;5030073;28;20028;-56
2022/05/14 02:32:15;;;;;;;4.97;3.53;;;512.90;2380.80;;;;;;5029669;28;20563;-57
2022/05/14 02:34:40;;;;;;;5.38;2.92;;;537.60;2406.40;;;;;;5029794;28;20100;-56
2022/05/14 02:37:06;;;;;;;5.57;3.40;;;537.70;2406.40;;;;;;5029387;28;20037;-57
2022/05/14 02:39:32;;;;;;;4.57;3.20;;;537.60;2406.40;;;;;;5030110;28;20073;-57
2022/05/14 02:41:57;;;;;;;7.18;3.28;;;537.70;2406.40;;;;;;5029983;28;20090;-56
2022/05/14 02:44:23;;;;;;;6.22;3.88;;;537.60;2406.40;;;;;;5029752;28;20112;-57
2022/05/14 02:46:49;;;;;;;5.22;3.50;;;512.90;2380.80;;;;;;5029788;28;20117;-57
2022/05/14 02:49:14;;;;;;;6.93;4.28;;;512.80;2380.80;;;;;;5029665;28;20022;-57
2022/05/14 02:51:40;;;;;;;6.82;3.97;;;512.70;2380.80;;;;;;5029702;28;20156;-57
2022/05/14 02:54:06;;;;;;;5.85;3.60;;;512.70;2380.80;;;;;;5029511;28;20341;-57
2022/05/14 02:56:32;;;;;;;6.28;3.95;;;512.70;2380.80;;;;;;5029871;28;20022;-59
2022/05/14 02:59:09;;;;;;;4.97;3.58;;;512.60;2380.80;;;;;;5029610;28;20460;-56
2022/05/14 03:01:37;;;;;;;7.00;4.43;;;512.70;2380.80;;;;;;5029361;28;20026;-57
2022/05/14 03:04:06;;;;;;;5.57;3.67;;;512.70;2380.80;;;;;;5029771;28;20024;-58
2022/05/14 03:06:32;;;;;;;5.95;3.63;;;512.80;2380.80;;;;;;5029633;28;20469;-57
2022/05/14 03:08:58;;;;;;;4.70;3.50;;;512.70;2380.80;;;;;;5029538;28;20036;-57
2022/05/14 03:11:23;;;;;;;4.22;2.90;;;512.80;2380.80;;;;;;5029585;28;20128;-57
2022/05/14 03:13:49;;;;;;;6.80;3.78;;;512.80;2380.80;;;;;;5029617;28;20033;-58
2022/05/14 03:16:15;;;;;;;4.78;3.03;;;512.80;2380.80;;;;;;5029393;28;20030;-57
2022/05/14 03:18:41;;;;;;;7.18;3.17;;;512.80;2380.80;;;;;;5032710;28;20079;-57
2022/05/14 03:21:07;;;;;;;5.60;3.53;;;512.80;2380.80;;;;;;5033012;28;20503;-57
2022/05/14 03:23:33;;;;;;;4.60;3.28;;;512.70;2380.80;;;;;;5033290;28;20030;-57
2022/05/14 03:25:59;;;;;;;4.72;3.17;;;512.60;2380.80;;;;;;5033248;28;20030;-57
2022/05/14 03:28:25;;;;;;;4.55;2.97;;;512.50;2380.80;;;;;;5032861;28;20028;-57
2022/05/14 03:30:50;;;;;;;5.20;3.92;;;512.60;2380.80;;;;;;5032988;28;20075;-57
2022/05/14 03:33:16;;;;;;;6.18;3.85;;;512.70;2380.80;;;;;;5032831;28;20064;-56
2022/05/14 03:35:42;;;;;;;4.63;3.55;;;512.60;2380.80;;;;;;5032651;28;20479;-57
2022/05/14 03:38:08;;;;;;;7.03;4.45;;;512.80;2380.80;;;;;;5032502;28;20068;-56
2022/05/14 03:40:34;;;;;;;5.65;3.38;;;512.60;2380.80;;;;;;5032946;28;20071;-57
2022/05/14 03:42:59;;;;;;;5.25;3.17;;;512.60;2380.80;;;;;;5033204;28;20025;-57
2022/05/14 03:45:25;;;;;;;6.93;4.30;;;512.60;2380.80;;;;;;5032442;28;20399;-58
2022/05/14 03:47:51;;;;;;;5.85;3.60;;;512.60;2380.80;;;;;;5032736;28;20063;-56
2022/05/14 03:50:17;;;;;;;6.13;3.47;;;512.60;2380.80;;;;;;5032379;28;20510;-59
2022/05/14 03:52:42;;;;;;;4.75;3.33;;;512.80;2380.80;;;;;;5032504;28;20108;-58
2022/05/14 03:55:08;;;;;;;4.53;3.20;;;512.80;2380.80;;;;;;5032323;28;20025;-57
2022/05/14 03:57:34;;;;;;;6.20;3.90;;;512.90;2380.80;;;;;;5032403;28;20029;-58
2022/05/14 04:00:01;;;;;;;5.50;3.45;;;512.80;2380.80;;;;;;5032594;28;20032;-57
2022/05/14 04:02:27;;;;;;;5.00;3.60;;;512.60;2380.80;;;;;;5032266;28;20080;-57
2022/05/14 04:04:53;;;;;;;5.50;3.30;;;512.60;2380.80;;;;;;5032266;28;20462;-58
2022/05/14 04:07:19;;;;;;;7.00;3.35;;;512.50;2380.80;;;;;;5032155;28;20438;-57
2022/05/14 04:09:45;;;;;;;4.85;3.28;;;512.50;2380.80;;;;;;5031959;28;20030;-57
2022/05/14 04:12:11;;;;;;;5.05;3.45;;;512.60;2380.80;;;;;;5032290;28;20075;-57
2022/05/14 04:14:36;;;;;;;4.72;3.45;;;512.50;2380.80;;;;;;5032042;28;20027;-56
2022/05/14 04:17:03;;;;;;;9.73;3.58;;;512.40;2380.80;;;;;;5032351;28;20040;-56
2022/05/14 04:19:28;;;;;;;5.90;3.40;;;512.50;2380.80;;;;;;5032474;28;20097;-56
2022/05/14 04:21:54;;;;;;;4.05;2.78;;;512.40;2380.80;;;;;;5031897;28;20025;-57
2022/05/14 04:24:20;;;;;;;6.90;3.90;;;512.40;2380.80;;;;;;5031945;28;20029;-56
2022/05/14 04:26:45;;;;;;;4.78;2.90;;;512.30;2380.80;;;;;;5031620;28;20029;-57
2022/05/14 04:29:11;;;;;;;5.10;3.28;;;512.50;2380.80;;;;;;5031174;28;20028;-57
2022/05/14 04:31:39;;;;;;;5.65;3.38;;;512.60;2380.80;;;;;;5031643;28;20541;-56
2022/05/14 04:34:05;;;;;;;8.30;3.50;;;512.80;2380.80;;;;;;5031657;28;20488;-57
2022/05/14 04:36:31;;;;;;;6.00;3.67;;;512.80;2380.80;;;;;;5031567;28;20033;-56
2022/05/14 04:38:57;;;;;;;4.38;3.22;;;512.80;2380.80;;;;;;5031592;28;20046;-57
2022/05/14 04:41:25;;;;;;;5.13;3.55;;;512.90;2380.80;;;;;;5031904;28;20025;-56
2022/05/14 04:43:51;;;;;;;4.72;3.58;;;512.80;2380.80;;;;;;5031596;28;20032;-56
2022/05/14 04:46:17;;;;;;;6.03;3.88;;;512.90;2380.80;;;;;;5031052;28;20124;-57
2022/05/14 04:48:43;;;;;;;5.82;3.97;;;512.70;2380.80;;;;;;5031600;28;20495;-57
2022/05/14 04:51:09;;;;;;;7.95;4.35;;;512.70;2380.80;;;;;;5031502;28;20428;-56
2022/05/14 04:53:35;;;;;;;7.13;3.20;;;512.70;2380.80;;;;;;5030501;28;20037;-56
2022/05/14 04:56:00;;;;;;;4.90;3.60;;;512.70;2380.80;;;;;;5031411;28;20037;-56
2022/05/14 04:58:26;;;;;;;6.85;3.58;;;512.60;2380.80;;;;;;5031289;28;20105;-56
2022/05/14 05:00:52;;;;;;;6.03;3.65;;;512.50;2380.80;;;;;;5031109;28;20087;-57
2022/05/14 05:03:18;;;;;;;4.97;3.58;;;512.50;2380.80;;;;;;5031040;28;20022;-56
2022/05/14 05:05:49;;;;;;;5.07;3.20;;;512.60;2380.80;;;;;;5030822;28;20029;-57
2022/05/14 05:08:15;;;;;;;5.68;3.38;;;512.60;2380.80;;;;;;5030930;28;20034;-56
2022/05/14 05:10:42;;;;;;;5.20;3.30;;;512.60;2380.80;;;;;;5031318;28;20088;-59
2022/05/14 05:13:12;;;;;;;5.38;3.80;;;512.60;2380.80;;;;;;5030912;28;20025;-57
2022/05/14 05:15:38;;;;;;;4.22;3.03;;;512.70;2380.80;;;;;;5030714;28;20029;-57
2022/05/14 05:18:06;;;;;;;5.80;3.22;;;512.70;2380.80;;;;;;5030811;28;20036;-57
2022/05/14 05:20:33;;;;;;;5.47;3.95;;;512.70;2380.80;;;;;;5030750;28;20100;-56
2022/05/14 05:22:59;;;;;;;4.88;2.63;;;512.60;2380.80;;;;;;5030999;28;20040;-56
2022/05/14 05:25:25;;;;;;;5.88;3.13;;;512.80;2380.80;;;;;;5030755;28;20037;-56
2022/05/14 05:27:50;;;;;;;4.97;2.88;;;512.90;2380.80;;;;;;5030862;28;20052;-57
2022/05/14 05:30:17;;;;;;;5.45;3.38;;;537.60;2406.40;;;;;;5030760;28;20030;-56
2022/05/14 05:32:43;;;;;;;5.70;3.45;;;537.60;2406.40;;;;;;5030695;28;20495;-56
2022/05/14 05:35:09;;;;;;;6.47;3.80;;;537.80;2406.40;;;;;;5030684;28;20059;-57
2022/05/14 05:37:35;;;;;;;8.38;3.53;;;538.00;2406.40;;;;;;5030071;28;20049;-57
2022/05/14 05:40:01;;;;;;;5.68;3.40;;;538.00;2406.40;;;;;;5030697;28;20025;-59
2022/05/14 05:42:27;;;;;;;6.80;3.90;;;538.00;2406.40;;;;;;5030437;28;20032;-56
2022/05/14 05:44:55;;;;;;;5.50;3.38;;;538.10;2406.40;;;;;;5030577;28;20403;-57
2022/05/14 05:47:22;;;;;;;5.47;3.13;;;538.10;2406.40;;;;;;5030407;28;20392;-56
2022/05/14 05:49:47;;;;;;;6.43;3.50;;;538.20;2406.40;;;;;;5030276;28;20022;-57
2022/05/14 05:52:13;;;;;;;5.75;3.63;;;538.20;2406.40;;;;;;5030484;28;20555;-57
2022/05/14 05:57:32;;;;;;;5.80;3.80;;;538.50;2406.40;;;;;;5030347;28;20074;-57
2022/05/14 05:59:59;;;;;;;4.03;3.22;;;563.20;2432.00;;;;;;5030126;28;20056;-57
2022/05/14 06:02:25;;;;;;;4.28;2.95;;;563.40;2432.00;;;;;;5030074;28;20017;-56
2022/05/14 06:04:51;;;;;;;6.15;3.55;;;563.60;2432.00;;;;;;5030197;28;20553;-57
2022/05/14 06:07:17;;;;;;;4.00;3.00;;;563.60;2432.00;;;;;;5029914;28;20037;-56
2022/05/14 06:09:42;;;;;;;4.03;2.88;;;563.80;2432.00;;;;;;5030448;28;20030;-56
2022/05/14 06:12:09;;;;;;;4.38;3.20;;;563.80;2432.00;;;;;;5030084;28;20025;-56
2022/05/14 06:14:35;;;;;;;5.75;2.90;;;588.80;2432.00;;;;;;5029974;28;20029;-57
2022/05/14 06:17:00;;;;;;;5.55;3.30;;;588.90;2432.00;;;;;;5030009;28;20029;-56
2022/05/14 06:19:26;;;;;;;4.88;3.13;;;588.90;2432.00;;;;;;5029929;28;20025;-58
2022/05/14 06:21:52;;;;;;;3.70;3.00;;;589.00;2432.00;;;;;;5030234;28;20032;-59
2022/05/14 06:24:17;;;;;;;5.13;3.25;;;588.80;2432.00;;;;;;5030058;28;20058;-57
2022/05/14 06:26:43;;;;;;;4.50;3.03;;;588.80;2432.00;;;;;;5029983;28;20145;-57
2022/05/14 06:29:09;;;;;;;5.00;3.13;;;588.80;2432.00;;;;;;5030043;28;20037;-56
2022/05/14 06:31:35;;;;;;;4.97;2.90;;;588.80;2432.00;;;;;;5029699;28;20037;-57
2022/05/14 06:34:01;;;;;;;4.85;2.85;;;564.10;2432.00;;;;;;5029918;28;20021;-57
2022/05/14 06:36:27;;;;;;;5.00;2.92;;;564.10;2432.00;;;;;;5029664;28;20038;-56
2022/05/14 06:38:53;;;;;;;5.13;3.40;;;563.90;2432.00;;;;;;5029748;28;20053;-56
2022/05/14 06:41:19;;;;;;;5.70;4.07;;;564.00;2432.00;;;;;;5029884;28;20059;-57
2022/05/14 06:43:44;;;;;;;3.83;2.60;;;563.90;2432.00;;;;;;5029663;28;20113;-57
2022/05/14 06:46:10;;;;;;;6.30;3.53;;;563.90;2432.00;;;;;;5029933;28;20075;-56
2022/05/14 06:48:36;;;;;;;12.85;6.15;;;564.00;2432.00;;;;;;5029520;28;20022;-57
2022/05/14 06:51:05;;;;;;;6.93;3.33;;;564.10;2432.00;;;;;;5029710;28;20075;-57
2022/05/14 06:53:37;;;;;;;11.98;4.53;;;564.00;2432.00;;;;;;5032939;28;20025;-57
2022/05/14 06:56:04;;;;;;;7.53;4.35;;;564.10;2432.00;;;;;;5033657;28;20472;-57
2022/05/14 06:58:38;;;;;;;6.25;2.95;;;564.10;2432.00;;;;;;5033776;28;20491;-55
2022/05/14 07:01:04;;;;;;;4.50;2.95;;;588.80;2432.00;;;;;;5033284;28;20017;-57
2022/05/14 07:09:01;;;;;;;4.35;3.05;;;588.90;2432.00;;;;;;5033313;28;20037;-58
2022/05/14 07:11:27;;;;;;;5.00;2.92;;;564.10;2432.00;;;;;;5033232;28;20112;-57
2022/05/14 07:13:53;;;;;;;4.97;3.15;;;564.10;2432.00;;;;;;5032542;28;20108;-56
2022/05/14 07:16:19;;;;;;;4.72;3.50;;;563.90;2432.00;;;;;;5033291;28;20029;-56
2022/05/14 07:18:45;;;;;;;5.75;3.17;;;563.80;2432.00;;;;;;5033373;28;20028;-57
2022/05/14 07:21:11;;;;;;;4.55;3.13;;;563.90;2432.00;;;;;;5033243;28;20562;-55
2022/05/14 07:23:37;;;;;;;4.25;2.83;;;563.90;2432.00;;;;;;5033087;28;20388;-56
2022/05/14 07:26:04;;;;;;;4.30;3.00;;;564.10;2432.00;;;;;;5032926;28;20037;-57
2022/05/14 07:28:30;;;;;;;4.43;2.63;;;588.80;2432.00;;;;;;5033165;28;20530;-56
2022/05/14 07:30:55;;;;;;;5.40;3.38;;;588.80;2432.00;;;;;;5032758;28;20067;-57
2022/05/14 07:33:21;;;;;;;4.68;2.90;;;564.10;2432.00;;;;;;5033141;28;20026;-58
2022/05/14 07:35:47;;;;;;;4.25;2.78;;;588.80;2432.00;;;;;;5032735;28;20464;-57
2022/05/14 07:38:13;;;;;;;4.75;2.97;;;588.80;2432.00;;;;;;5032872;28;20050;-57
2022/05/14 07:40:39;;;;;;;4.65;2.97;;;564.10;2432.00;;;;;;5032904;28;20033;-57
2022/05/14 07:43:18;;;;;;;5.68;3.03;;;588.90;2432.00;;;;;;5032625;28;20399;-56
2022/05/14 07:45:50;;;;;;;4.85;3.28;;;588.90;2432.00;;;;;;5032391;28;20041;-57
2022/05/14 07:48:27;;;;;;;5.18;2.85;;;564.10;2432.00;;;;;;5032433;28;20106;-58
2022/05/14 07:50:53;;;;;;;4.70;2.55;;;588.80;2432.00;;;;;;5032424;28;20036;-59
2022/05/14 07:53:19;;;;;;;4.53;2.45;;;588.80;2432.00;;;;;;5037798;28;20021;-57
2022/05/14 07:55:46;;;;;;;4.10;3.00;;;588.80;2432.00;;;;;;5042765;28;20379;-60
2022/05/14 07:58:12;;;;;;;5.40;2.65;;;588.90;2432.00;;;;;;5040948;28;20021;-59
2022/05/14 08:00:39;;;;;;;6.65;3.30;;;589.10;2432.00;;;;;;5041684;28;20053;-57
2022/05/14 08:03:06;;;;;;;4.10;2.95;;;589.40;2432.00;;;;;;5041876;28;20487;-56
2022/05/14 08:05:32;;;;;;;4.97;2.97;;;589.50;2432.00;;;;;;5040043;28;20488;-56
2022/05/14 08:07:58;;;;;;;4.07;2.53;;;589.20;2432.00;;;;;;5041695;28;20029;-55
2022/05/14 08:10:24;;;;;;;4.88;2.90;;;589.30;2432.00;;;;;;5045283;28;20029;-57
2022/05/14 08:12:54;;;;;;;4.47;2.70;;;589.50;2432.00;;;;;;5052224;28;20024;-57
2022/05/14 08:15:21;;;;;;;3.72;2.53;;;589.30;2432.00;;;;;;5052084;28;20017;-57
2022/05/14 08:17:47;;;;;;;3.83;2.70;;;589.40;2432.00;;;;;;5048137;28;20030;-57
2022/05/14 08:20:14;;;;;;;3.53;2.50;;;589.50;2432.00;;;;;;5039804;28;20384;-58
2022/05/14 08:25:26;;;;;;;4.60;2.97;;;614.40;2432.00;;;;;;5040850;28;20091;-57
2022/05/14 08:27:52;;;;;;;5.10;3.20;;;614.60;2432.00;;;;;;5048956;28;20021;-59
2022/05/14 08:30:21;;;;;;;4.82;3.17;;;614.80;2432.00;;;;;;5041539;28;20036;-56
2022/05/14 08:32:47;;;;;;;5.55;2.50;;;614.80;2432.00;;;;;;5041523;28;20017;-56
2022/05/14 08:35:13;;;;;;;5.45;3.15;;;614.80;2432.00;;;;;;5040877;28;20032;-57
2022/05/14 08:37:39;;;;;;;5.43;2.80;;;614.60;2432.00;;;;;;5048142;28;20127;-57
2022/05/14 08:40:20;;;;;;;4.60;2.80;;;614.60;2432.00;;;;;;5047617;28;20113;-59
2022/05/14 08:42:51;;;;;;;3.90;2.85;;;614.70;2432.00;;;;;;5031292;28;20104;-57
2022/05/14 08:45:19;;;;;;;3.25;1.95;;;614.80;2432.00;;;;;;5031404;28;20407;-56
2022/05/14 08:47:55;;;;;;;3.30;2.33;;;615.00;2432.00;;;;;;5031459;28;20086;-57
2022/05/14 08:50:28;;;;;;;3.92;2.75;;;615.10;2432.00;;;;;;5037233;28;20028;-57
2022/05/14 08:53:00;;;;;;;4.97;2.95;;;615.10;2432.00;;;;;;5032140;28;20033;-57
2022/05/14 08:55:39;;;;;;;3.67;2.55;;;640.00;2329.60;;;;;;5047550;28;20043;-57
2022/05/14 08:58:12;;;;;;;3.78;2.55;;;615.20;2329.60;;;;;;5050812;28;20039;-58
2022/05/14 09:00:37;;;;;;;4.40;2.63;;;615.20;2329.60;;;;;;5050981;28;20084;-59
2022/05/14 09:03:03;;;;;;;4.55;2.55;;;640.10;2252.80;;;;;;5051018;28;20462;-57
2022/05/14 09:05:34;;;;;;;4.03;2.17;;;615.30;2329.60;;;;;;5051198;28;20395;-59
2022/05/14 09:08:01;;;;;;;3.45;2.58;;;640.20;2329.60;;;;;;5051097;28;20033;-59
2022/05/14 09:10:35;;;;;;;4.28;2.80;;;640.40;2176.00;;;;;;5051113;28;20025;-59
2022/05/14 09:13:21;;;;;;;3.63;2.67;;;640.60;2227.20;;;;;;5051122;28;20467;-59
2022/05/14 09:15:58;;;;;;;3.60;2.15;;;640.70;2176.00;;;;;;5050387;28;20031;-59
2022/05/14 09:18:27;;;;;;;3.50;2.60;;;665.60;2150.40;;;;;;5050713;28;20039;-58
2022/05/14 09:20:57;;;;;;;4.00;2.70;;;665.70;2150.40;;;;;;5050871;28;20032;-57
2022/05/14 09:23:26;;;;;;;5.00;3.72;;;666.00;2073.60;;;;;;5050926;28;20446;-58
2022/05/14 09:25:52;;;;;;;4.05;3.10;;;666.20;2048.00;;;;;;5050576;28;20067;-56
2022/05/14 09:28:45;;;;;;;4.35;3.15;;;691.40;2048.00;;;;;;5050545;28;20025;-59
2022/05/14 09:31:25;;;;;;;4.85;3.10;;;691.30;2022.40;;;;;;5050347;28;20055;-59
2022/05/14 09:34:04;;;;;;;3.42;2.35;;;691.30;1920.00;;;;;;5050801;28;20025;-58
2022/05/14 09:36:31;;;;;;;11.45;2.70;;;691.30;1920.00;;;;;;5050491;28;20033;-59
2022/05/14 09:39:09;;;;;;;5.25;2.95;;;691.60;1920.00;;;;;;5050259;28;20049;-58
2022/05/14 09:41:45;;;;;;;5.70;2.35;;;691.70;1894.40;;;;;;5050235;28;20471;-58
2022/05/14 09:44:27;;;;;;;2.67;2.35;;;691.90;1894.40;;;;;;5050506;28;20033;-59
2022/05/14 09:47:11;;;;;;;3.38;2.53;;;692.10;1868.80;;;;;;5050293;28;20119;-57
2022/05/14 09:49:41;;;;;;;4.43;2.78;;;716.90;1843.20;;;;;;5050162;28;20514;-58
2022/05/14 09:52:15;;;;;;;4.15;2.72;;;717.30;1843.20;;;;;;5048025;28;20549;-59
2022/05/14 09:54:46;;;;;;;4.80;2.67;;;717.40;1792.00;;;;;;5049264;28;20021;-58
2022/05/14 09:57:39;;;;;;;3.80;2.50;;;717.60;1792.00;;;;;;5050800;28;20033;-57
2022/05/14 10:00:12;;;;;;;3.20;2.40;;;717.50;1792.00;;;;;;5049930;28;20467;-59
2022/05/14 10:02:44;;;;;;;4.25;2.85;;;717.60;1766.40;;;;;;5050096;28;20037;-57
2022/05/14 10:05:37;;;;;;;4.22;3.13;;;717.50;1766.40;;;;;;5050208;28;20078;-57
2022/05/14 10:08:41;;;;;;;4.28;2.95;;;717.70;1766.40;;;;;;5050076;28;20035;-58
2022/05/14 10:11:14;;;;;;;4.13;3.08;;;717.70;1766.40;;;;;;5049776;28;20033;-58
2022/05/14 10:13:50;;;;;;;6.32;3.03;;;742.60;1740.80;;;;;;5050019;28;20071;-59
2022/05/14 10:16:27;;;;;;;4.55;3.13;;;742.60;1715.20;;;;;;5049895;28;20451;-58
2022/05/14 10:19:05;;;;;;;4.32;3.15;;;717.70;1715.20;;;;;;5049916;28;20021;-58
2022/05/14 10:21:53;;;;;;;4.72;3.33;;;717.70;1715.20;;;;;;5050089;28;20044;-58
2022/05/14 10:27:44;;;;;;;6.63;3.08;;;716.90;1740.80;;;;;;5051214;28;20179;-61
2022/05/14 10:30:41;;;;;;;4.75;3.15;;;716.90;1766.40;;;;;;5053971;28;20028;-61
2022/05/14 10:33:12;;;;;;;4.75;3.13;;;691.90;1792.00;;;;;;5053520;28;20573;-60
2022/05/14 10:36:04;;;;;;;4.18;3.78;;;691.80;1766.40;;;;;;5053822;28;20025;-61
2022/05/14 10:38:41;;;;;;;5.50;3.53;;;691.70;1792.00;;;;;;5053970;28;20132;-62
2022/05/14 10:41:08;;;;;;;5.13;3.78;;;691.60;1792.00;;;;;;5053724;28;20493;-62
2022/05/14 10:43:56;;;;;;;4.57;3.53;;;691.60;1740.80;;;;;;5053864;28;20471;-63
2022/05/14 10:46:26;;;;;;;5.18;3.15;;;691.60;1766.40;;;;;;5053688;28;20562;-62
2022/05/14 10:49:22;;;;;;;4.47;3.35;;;691.60;1792.00;;;;;;5053880;28;20032;-62
2022/05/14 10:51:50;;;;;;;5.53;3.83;;;691.40;1817.60;;;;;;5053489;28;20024;-61
2022/05/14 10:54:22;;;;;;;6.03;3.88;;;691.60;1817.60;;;;;;5053486;28;20098;-63
2022/05/14 10:57:20;;;;;;;4.50;3.55;;;691.60;1843.20;;;;;;5053325;28;20025;-62
2022/05/14 11:00:02;;;;;;;6.63;4.53;;;691.60;1817.60;;;;;;5053282;28;20496;-62
2022/05/14 11:02:52;;;;;;;6.75;3.95;;;691.60;1792.00;;;;;;5053308;28;20375;-62
2022/05/14 11:05:35;;;;;;;5.50;3.42;;;691.80;1766.40;;;;;;5053216;28;20017;-63
2022/05/14 11:08:26;;;;;;;6.25;3.67;;;716.80;1664.00;;;;;;5053431;28;20033;-63
2022/05/14 11:11:02;;;;;;;5.68;3.10;;;691.90;1612.80;;;;;;5053557;28;20387;-63
2022/05/14 11:13:28;;;;;;;5.07;3.05;;;716.80;1612.80;;;;;;5053192;28;20091;-62
2022/05/14 11:16:20;;;;;;;4.60;3.42;;;692.00;1587.20;;;;;;5052980;28;20051;-63
2022/05/14 11:18:51;;;;;;;5.07;3.10;;;691.80;1612.80;;;;;;5053067;28;20035;-62
2022/05/14 11:21:18;;;;;;;4.65;3.50;;;691.80;1587.20;;;;;;5052991;28;20024;-62
2022/05/14 11:23:57;;;;;;;5.72;3.88;;;691.80;1587.20;;;;;;5052684;28;20087;-63
2022/05/14 11:26:25;;;;;;;5.28;4.07;;;691.90;1587.20;;;;;;5032063;28;20037;-61
2022/05/14 11:28:59;;;;;;;5.28;3.72;;;691.80;1638.40;;;;;;5035914;28;20033;-62
2022/05/14 11:31:29;;;;;;;6.63;4.75;;;692.10;1664.00;;;;;;5039977;28;20112;-64
2022/05/14 11:33:59;;;;;;;5.63;4.35;;;692.00;1638.40;;;;;;5031030;28;20064;-63
2022/05/14 11:36:31;;;;;;;5.47;4.10;;;692.00;1664.00;;;;;;5030852;28;20037;-63
2022/05/14 11:39:20;;;;;;;6.22;4.25;;;692.10;1638.40;;;;;;5030817;28;20049;-62
2022/05/14 11:41:48;;;;;;;5.32;3.67;;;692.10;1689.60;;;;;;5038277;28;20022;-62
2022/05/14 11:44:35;;;;;;;7.13;4.18;;;692.10;1664.00;;;;;;5047670;28;20029;-62
2022/05/14 11:47:02;;;;;;;7.30;4.70;;;692.10;1664.00;;;;;;5050996;28;20033;-62
2022/05/14 11:49:41;;;;;;;6.55;4.03;;;692.10;1664.00;;;;;;5050826;28;20499;-63
2022/05/14 11:52:10;;;;;;;5.65;4.50;;;692.10;1638.40;;;;;;5050885;28;20056;-62
2022/05/14 11:54:58;;;;;;;5.05;4.32;;;716.80;1664.00;;;;;;5050352;28;20040;-62
2022/05/14 11:57:59;;;;;;;5.35;4.38;;;717.10;1612.80;;;;;;5040088;28;20082;-63
2022/05/14 12:00:32;;;;;;;5.35;3.88;;;717.20;1587.20;;;;;;5039873;28;20033;-63
2022/05/14 12:03:02;;;;;;;9.02;4.68;;;717.20;1587.20;;;;;;5039025;28;20029;-61
2022/05/14 12:05:42;;;;;;;4.60;3.50;;;692.00;1587.20;;;;;;5038483;28;20064;-61
2022/05/14 12:09:00;;;;;;;8.93;4.60;;;691.60;1536.00;;;;;;5040093;28;20087;-60
2022/05/14 12:11:32;;;;;;;4.45;3.13;;;691.40;1561.60;;;;;;5034928;28;20025;-61
2022/05/14 12:14:16;;;;;;;5.85;4.13;;;691.60;1536.00;;;;;;5041960;28;20100;-61
2022/05/14 12:16:53;;;;;;;6.47;3.92;;;691.60;1561.60;;;;;;5038960;28;20044;-58
2022/05/14 12:19:25;;;;;;;4.15;3.45;;;691.60;1561.60;;;;;;5036445;28;20537;-57
2022/05/14 12:21:59;;;;;;;4.65;3.22;;;691.70;1536.00;;;;;;5032309;28;20427;-58
2022/05/14 12:24:27;;;;;;;7.97;4.47;;;691.40;1561.60;;;;;;5035318;28;20022;-59
2022/05/14 12:26:53;;;;;;;4.35;3.47;;;691.30;1510.40;;;;;;5036189;28;20037;-59
2022/05/14 12:29:27;;;;;;;3.70;2.83;;;691.20;1484.80;;;;;;5032461;28;20463;-61
2022/05/14 12:34:44;;;;;;;5.50;3.08;;;691.60;1612.80;;;;;;5028994;28;20435;-59
2022/05/14 12:37:37;;;;;;;5.20;3.70;;;691.60;1612.80;;;;;;5031527;28;20025;-59
2022/05/14 12:40:03;;;;;;;5.63;3.88;;;691.30;1638.40;;;;;;4932379;29;20455;-58
2022/05/14 12:42:37;;;;;;;4.68;3.22;;;691.30;1664.00;;;;;;4944173;29;20402;-59
2022/05/14 12:45:04;;;;;;;5.47;3.72;;;666.40;1664.00;;;;;;4951464;29;20031;-59
2022/05/14 12:47:34;;;;;;;3.88;2.90;;;666.40;1689.60;;;;;;4951083;29;20039;-61
2022/05/14 12:50:04;;;;;;;6.28;4.43;;;666.40;1664.00;;;;;;4950692;28;20031;-58
2022/05/14 12:52:32;;;;;;;5.25;3.90;;;666.50;1638.40;;;;;;4951519;29;20031;-58
2022/05/14 12:55:11;;;;;;;10.45;3.47;;;666.50;1638.40;;;;;;4951110;29;20027;-58